sensor_id;sensor_type;location;lat;lon;timestamp;P1;durP1;ratioP1;P2;durP2;ratioP2
82352;SDS011;71954;47.430;18.920;2024-02-16T00:02:00;20.38;;;11.85;;
82352;SDS011;71954;47.430;18.920;2024-02-16T00:04:28;20.38;;;11.38;;
82352;SDS011;71954;47.430;18.920;2024-02-16T00:06:55;22.20;;;12.00;;
82352;SDS011;71954;47.430;18.920;2024-02-16T00:09:22;22.67;;;11.35;;
82352;SDS011;71954;47.430;18.920;2024-02-16T00:11:48;21.60;;;11.90;;
82352;SDS011;71954;47.430;18.920;2024-02-16T00:14:17;22.83;;;12.50;;
82352;SDS011;71954;47.430;18.920;2024-02-16T00:16:44;25.58;;;12.20;;
82352;SDS011;71954;47.430;18.920;2024-02-16T00:19:10;20.52;;;11.05;;
82352;SDS011;71954;47.430;18.920;2024-02-16T00:21:37;20.20;;;11.43;;
82352;SDS011;71954;47.430;18.920;2024-02-16T00:24:08;23.63;;;12.10;;
82352;SDS011;71954;47.430;18.920;2024-02-16T00:26:36;25.23;;;11.55;;
82352;SDS011;71954;47.430;18.920;2024-02-16T00:29:03;24.77;;;12.55;;
82352;SDS011;71954;47.430;18.920;2024-02-16T00:31:31;25.23;;;11.30;;
82352;SDS011;71954;47.430;18.920;2024-02-16T00:33:57;20.40;;;11.45;;
82352;SDS011;71954;47.430;18.920;2024-02-16T00:38:52;20.20;;;10.88;;
82352;SDS011;71954;47.430;18.920;2024-02-16T00:41:19;21.48;;;12.40;;
82352;SDS011;71954;47.430;18.920;2024-02-16T00:43:47;25.23;;;11.77;;
82352;SDS011;71954;47.430;18.920;2024-02-16T00:46:14;24.80;;;11.20;;
82352;SDS011;71954;47.430;18.920;2024-02-16T00:48:41;22.30;;;11.32;;
82352;SDS011;71954;47.430;18.920;2024-02-16T00:51:08;20.98;;;11.25;;
82352;SDS011;71954;47.430;18.920;2024-02-16T00:53:34;21.50;;;11.82;;
82352;SDS011;71954;47.430;18.920;2024-02-16T00:56:01;20.70;;;11.32;;
82352;SDS011;71954;47.430;18.920;2024-02-16T00:58:29;22.17;;;11.57;;
82352;SDS011;71954;47.430;18.920;2024-02-16T01:00:57;21.98;;;12.23;;
82352;SDS011;71954;47.430;18.920;2024-02-16T01:03:24;20.70;;;11.15;;
82352;SDS011;71954;47.430;18.920;2024-02-16T01:05:52;24.23;;;11.68;;
82352;SDS011;71954;47.430;18.920;2024-02-16T01:08:19;22.20;;;11.40;;
82352;SDS011;71954;47.430;18.920;2024-02-16T01:10:46;19.65;;;11.32;;
82352;SDS011;71954;47.430;18.920;2024-02-16T01:18:07;21.98;;;10.27;;
82352;SDS011;71954;47.430;18.920;2024-02-16T01:20:34;19.05;;;10.43;;
82352;SDS011;71954;47.430;18.920;2024-02-16T01:23:01;19.98;;;9.90;;
82352;SDS011;71954;47.430;18.920;2024-02-16T01:25:28;21.10;;;10.73;;
82352;SDS011;71954;47.430;18.920;2024-02-16T01:27:55;20.42;;;10.90;;
82352;SDS011;71954;47.430;18.920;2024-02-16T01:30:22;19.70;;;10.02;;
82352;SDS011;71954;47.430;18.920;2024-02-16T01:32:48;19.95;;;10.23;;
82352;SDS011;71954;47.430;18.920;2024-02-16T01:35:15;19.92;;;10.13;;
82352;SDS011;71954;47.430;18.920;2024-02-16T01:37:42;20.17;;;10.70;;
82352;SDS011;71954;47.430;18.920;2024-02-16T01:40:09;21.13;;;11.63;;
82352;SDS011;71954;47.430;18.920;2024-02-16T01:42:44;21.20;;;10.23;;
82352;SDS011;71954;47.430;18.920;2024-02-16T01:45:11;24.73;;;10.27;;
82352;SDS011;71954;47.430;18.920;2024-02-16T01:47:39;20.20;;;10.73;;
82352;SDS011;71954;47.430;18.920;2024-02-16T01:50:09;20.63;;;9.95;;
82352;SDS011;71954;47.430;18.920;2024-02-16T01:52:36;22.33;;;11.07;;
82352;SDS011;71954;47.430;18.920;2024-02-16T01:55:04;19.83;;;9.80;;
82352;SDS011;71954;47.430;18.920;2024-02-16T01:57:31;22.83;;;10.77;;
82352;SDS011;71954;47.430;18.920;2024-02-16T01:59:58;20.23;;;10.10;;
82352;SDS011;71954;47.430;18.920;2024-02-16T02:02:25;17.90;;;9.85;;
82352;SDS011;71954;47.430;18.920;2024-02-16T02:04:52;21.83;;;10.73;;
82352;SDS011;71954;47.430;18.920;2024-02-16T02:07:18;22.77;;;10.80;;
82352;SDS011;71954;47.430;18.920;2024-02-16T02:09:50;21.63;;;10.70;;
82352;SDS011;71954;47.430;18.920;2024-02-16T02:12:17;20.60;;;10.05;;
82352;SDS011;71954;47.430;18.920;2024-02-16T02:14:44;21.10;;;10.57;;
82352;SDS011;71954;47.430;18.920;2024-02-16T02:17:13;22.85;;;12.07;;
82352;SDS011;71954;47.430;18.920;2024-02-16T02:19:39;23.35;;;11.13;;
82352;SDS011;71954;47.430;18.920;2024-02-16T02:22:16;22.33;;;10.60;;
82352;SDS011;71954;47.430;18.920;2024-02-16T02:24:46;19.08;;;10.13;;
82352;SDS011;71954;47.430;18.920;2024-02-16T02:27:15;21.70;;;11.20;;
82352;SDS011;71954;47.430;18.920;2024-02-16T02:29:42;21.75;;;11.27;;
82352;SDS011;71954;47.430;18.920;2024-02-16T02:32:09;23.23;;;11.90;;
82352;SDS011;71954;47.430;18.920;2024-02-16T02:34:36;24.48;;;11.63;;
82352;SDS011;71954;47.430;18.920;2024-02-16T02:37:03;21.05;;;9.63;;
82352;SDS011;71954;47.430;18.920;2024-02-16T02:39:30;22.48;;;11.07;;
82352;SDS011;71954;47.430;18.920;2024-02-16T02:44:25;22.23;;;11.00;;
82352;SDS011;71954;47.430;18.920;2024-02-16T02:46:52;21.60;;;10.48;;
82352;SDS011;71954;47.430;18.920;2024-02-16T02:49:19;23.40;;;10.77;;
82352;SDS011;71954;47.430;18.920;2024-02-16T02:51:46;19.98;;;10.63;;
82352;SDS011;71954;47.430;18.920;2024-02-16T02:54:12;19.35;;;10.13;;
82352;SDS011;71954;47.430;18.920;2024-02-16T02:56:39;19.60;;;10.10;;
82352;SDS011;71954;47.430;18.920;2024-02-16T02:59:06;21.27;;;11.25;;
82352;SDS011;71954;47.430;18.920;2024-02-16T03:01:33;20.42;;;11.02;;
82352;SDS011;71954;47.430;18.920;2024-02-16T03:04:01;24.02;;;11.55;;
82352;SDS011;71954;47.430;18.920;2024-02-16T03:06:28;21.95;;;11.65;;
82352;SDS011;71954;47.430;18.920;2024-02-16T03:08:55;22.73;;;10.82;;
82352;SDS011;71954;47.430;18.920;2024-02-16T03:11:21;22.63;;;10.93;;
82352;SDS011;71954;47.430;18.920;2024-02-16T03:13:48;20.38;;;11.02;;
82352;SDS011;71954;47.430;18.920;2024-02-16T03:16:15;22.52;;;11.38;;
82352;SDS011;71954;47.430;18.920;2024-02-16T03:18:41;23.45;;;10.63;;
82352;SDS011;71954;47.430;18.920;2024-02-16T03:21:08;22.58;;;11.32;;
82352;SDS011;71954;47.430;18.920;2024-02-16T03:23:39;21.88;;;10.68;;
82352;SDS011;71954;47.430;18.920;2024-02-16T03:26:13;19.27;;;10.65;;
82352;SDS011;71954;47.430;18.920;2024-02-16T03:28:40;21.02;;;10.73;;
82352;SDS011;71954;47.430;18.920;2024-02-16T03:31:07;21.50;;;10.60;;
82352;SDS011;71954;47.430;18.920;2024-02-16T03:33:34;23.42;;;10.82;;
82352;SDS011;71954;47.430;18.920;2024-02-16T03:36:01;19.70;;;10.88;;
82352;SDS011;71954;47.430;18.920;2024-02-16T03:38:28;23.20;;;11.20;;
82352;SDS011;71954;47.430;18.920;2024-02-16T03:40:54;22.70;;;10.70;;
82352;SDS011;71954;47.430;18.920;2024-02-16T03:43:22;20.85;;;11.45;;
82352;SDS011;71954;47.430;18.920;2024-02-16T03:45:48;21.17;;;11.05;;
82352;SDS011;71954;47.430;18.920;2024-02-16T03:48:15;24.55;;;10.55;;
82352;SDS011;71954;47.430;18.920;2024-02-16T03:50:42;21.00;;;9.98;;
82352;SDS011;71954;47.430;18.920;2024-02-16T03:53:08;24.13;;;9.07;;
82352;SDS011;71954;47.430;18.920;2024-02-16T03:55:37;20.23;;;11.00;;
82352;SDS011;71954;47.430;18.920;2024-02-16T03:58:04;21.70;;;10.68;;
82352;SDS011;71954;47.430;18.920;2024-02-16T04:00:31;24.80;;;11.38;;
82352;SDS011;71954;47.430;18.920;2024-02-16T04:05:25;19.52;;;10.70;;
82352;SDS011;71954;47.430;18.920;2024-02-16T04:07:57;22.55;;;11.80;;
82352;SDS011;71954;47.430;18.920;2024-02-16T04:10:32;22.98;;;11.20;;
82352;SDS011;71954;47.430;18.920;2024-02-16T04:17:52;20.70;;;10.13;;
82352;SDS011;71954;47.430;18.920;2024-02-16T04:20:19;22.23;;;11.15;;
82352;SDS011;71954;47.430;18.920;2024-02-16T04:22:46;22.92;;;10.38;;
82352;SDS011;71954;47.430;18.920;2024-02-16T04:25:13;21.65;;;11.13;;
82352;SDS011;71954;47.430;18.920;2024-02-16T04:27:39;20.67;;;11.25;;
82352;SDS011;71954;47.430;18.920;2024-02-16T04:30:06;21.52;;;10.68;;
82352;SDS011;71954;47.430;18.920;2024-02-16T04:32:33;19.10;;;10.13;;
82352;SDS011;71954;47.430;18.920;2024-02-16T04:35:00;23.75;;;11.90;;
82352;SDS011;71954;47.430;18.920;2024-02-16T04:37:27;22.88;;;11.13;;
82352;SDS011;71954;47.430;18.920;2024-02-16T04:39:53;24.10;;;11.10;;
82352;SDS011;71954;47.430;18.920;2024-02-16T04:42:20;23.40;;;11.50;;
82352;SDS011;71954;47.430;18.920;2024-02-16T04:44:47;22.65;;;11.38;;
82352;SDS011;71954;47.430;18.920;2024-02-16T04:47:15;21.92;;;11.10;;
82352;SDS011;71954;47.430;18.920;2024-02-16T04:49:41;20.83;;;10.95;;
82352;SDS011;71954;47.430;18.920;2024-02-16T04:52:08;25.65;;;12.23;;
82352;SDS011;71954;47.430;18.920;2024-02-16T04:54:35;21.35;;;10.85;;
82352;SDS011;71954;47.430;18.920;2024-02-16T04:57:02;20.17;;;10.18;;
82352;SDS011;71954;47.430;18.920;2024-02-16T04:59:29;24.83;;;11.00;;
82352;SDS011;71954;47.430;18.920;2024-02-16T05:01:56;23.40;;;11.23;;
82352;SDS011;71954;47.430;18.920;2024-02-16T05:04:22;27.65;;;11.60;;
82352;SDS011;71954;47.430;18.920;2024-02-16T05:06:49;27.92;;;11.73;;
82352;SDS011;71954;47.430;18.920;2024-02-16T05:09:19;25.15;;;11.68;;
82352;SDS011;71954;47.430;18.920;2024-02-16T05:11:46;24.60;;;12.00;;
82352;SDS011;71954;47.430;18.920;2024-02-16T05:14:12;25.05;;;11.80;;
82352;SDS011;71954;47.430;18.920;2024-02-16T05:16:45;30.85;;;12.13;;
82352;SDS011;71954;47.430;18.920;2024-02-16T05:19:12;19.63;;;11.02;;
82352;SDS011;71954;47.430;18.920;2024-02-16T05:21:39;28.35;;;11.93;;
82352;SDS011;71954;47.430;18.920;2024-02-16T05:24:06;23.75;;;11.45;;
82352;SDS011;71954;47.430;18.920;2024-02-16T05:26:32;26.23;;;13.50;;
82352;SDS011;71954;47.430;18.920;2024-02-16T05:28:59;28.98;;;12.70;;
82352;SDS011;71954;47.430;18.920;2024-02-16T05:31:26;25.90;;;12.80;;
82352;SDS011;71954;47.430;18.920;2024-02-16T05:33:52;25.05;;;12.45;;
82352;SDS011;71954;47.430;18.920;2024-02-16T05:36:20;22.77;;;11.15;;
82352;SDS011;71954;47.430;18.920;2024-02-16T05:38:47;19.15;;;10.57;;
82352;SDS011;71954;47.430;18.920;2024-02-16T05:41:15;26.33;;;12.25;;
82352;SDS011;71954;47.430;18.920;2024-02-16T05:43:44;25.38;;;11.40;;
82352;SDS011;71954;47.430;18.920;2024-02-16T05:46:17;24.02;;;11.68;;
82352;SDS011;71954;47.430;18.920;2024-02-16T05:48:44;22.48;;;11.48;;
82352;SDS011;71954;47.430;18.920;2024-02-16T05:51:11;23.17;;;12.93;;
82352;SDS011;71954;47.430;18.920;2024-02-16T05:53:39;21.40;;;10.88;;
82352;SDS011;71954;47.430;18.920;2024-02-16T05:56:07;25.50;;;11.13;;
82352;SDS011;71954;47.430;18.920;2024-02-16T05:58:33;22.55;;;11.35;;
82352;SDS011;71954;47.430;18.920;2024-02-16T06:01:00;26.20;;;12.25;;
82352;SDS011;71954;47.430;18.920;2024-02-16T06:03:27;26.65;;;12.35;;
82352;SDS011;71954;47.430;18.920;2024-02-16T06:05:53;22.90;;;12.15;;
82352;SDS011;71954;47.430;18.920;2024-02-16T06:08:20;29.63;;;13.80;;
82352;SDS011;71954;47.430;18.920;2024-02-16T06:10:47;22.95;;;12.00;;
82352;SDS011;71954;47.430;18.920;2024-02-16T06:13:20;29.13;;;13.05;;
82352;SDS011;71954;47.430;18.920;2024-02-16T06:15:47;30.85;;;14.05;;
82352;SDS011;71954;47.430;18.920;2024-02-16T06:18:14;26.55;;;13.10;;
82352;SDS011;71954;47.430;18.920;2024-02-16T06:20:41;29.73;;;14.52;;
82352;SDS011;71954;47.430;18.920;2024-02-16T06:23:08;25.35;;;12.48;;
82352;SDS011;71954;47.430;18.920;2024-02-16T06:25:35;25.05;;;12.52;;
82352;SDS011;71954;47.430;18.920;2024-02-16T06:28:02;26.15;;;12.98;;
82352;SDS011;71954;47.430;18.920;2024-02-16T06:30:30;26.95;;;13.05;;
82352;SDS011;71954;47.430;18.920;2024-02-16T06:32:57;22.50;;;12.90;;
82352;SDS011;71954;47.430;18.920;2024-02-16T06:37:51;25.13;;;12.77;;
82352;SDS011;71954;47.430;18.920;2024-02-16T06:40:18;26.17;;;13.23;;
82352;SDS011;71954;47.430;18.920;2024-02-16T06:42:44;28.30;;;15.32;;
82352;SDS011;71954;47.430;18.920;2024-02-16T06:45:12;28.95;;;14.63;;
82352;SDS011;71954;47.430;18.920;2024-02-16T06:47:39;28.15;;;14.10;;
82352;SDS011;71954;47.430;18.920;2024-02-16T06:50:06;28.67;;;14.32;;
82352;SDS011;71954;47.430;18.920;2024-02-16T06:52:33;28.13;;;14.45;;
82352;SDS011;71954;47.430;18.920;2024-02-16T06:55:00;26.50;;;13.77;;
82352;SDS011;71954;47.430;18.920;2024-02-16T06:57:27;27.08;;;14.20;;
82352;SDS011;71954;47.430;18.920;2024-02-16T07:02:24;25.10;;;13.43;;
82352;SDS011;71954;47.430;18.920;2024-02-16T07:04:51;30.65;;;15.60;;
82352;SDS011;71954;47.430;18.920;2024-02-16T07:07:18;29.77;;;14.25;;
82352;SDS011;71954;47.430;18.920;2024-02-16T07:09:45;26.27;;;13.75;;
82352;SDS011;71954;47.430;18.920;2024-02-16T07:12:12;25.90;;;13.07;;
82352;SDS011;71954;47.430;18.920;2024-02-16T07:14:39;26.20;;;13.05;;
82352;SDS011;71954;47.430;18.920;2024-02-16T07:17:06;24.08;;;13.05;;
82352;SDS011;71954;47.430;18.920;2024-02-16T07:19:36;28.40;;;14.55;;
82352;SDS011;71954;47.430;18.920;2024-02-16T07:22:03;25.15;;;13.18;;
82352;SDS011;71954;47.430;18.920;2024-02-16T07:24:33;30.90;;;13.45;;
82352;SDS011;71954;47.430;18.920;2024-02-16T07:29:28;28.35;;;13.75;;
82352;SDS011;71954;47.430;18.920;2024-02-16T07:31:54;28.13;;;14.30;;
82352;SDS011;71954;47.430;18.920;2024-02-16T07:34:22;27.35;;;13.68;;
82352;SDS011;71954;47.430;18.920;2024-02-16T07:36:50;26.77;;;15.60;;
82352;SDS011;71954;47.430;18.920;2024-02-16T07:39:18;24.92;;;14.02;;
82352;SDS011;71954;47.430;18.920;2024-02-16T07:41:49;28.98;;;14.48;;
82352;SDS011;71954;47.430;18.920;2024-02-16T07:44:15;25.15;;;13.85;;
82352;SDS011;71954;47.430;18.920;2024-02-16T07:46:42;28.45;;;15.82;;
82352;SDS011;71954;47.430;18.920;2024-02-16T07:49:12;32.45;;;14.13;;
82352;SDS011;71954;47.430;18.920;2024-02-16T07:51:39;27.63;;;11.80;;
82352;SDS011;71954;47.430;18.920;2024-02-16T07:54:06;24.25;;;11.77;;
82352;SDS011;71954;47.430;18.920;2024-02-16T07:56:34;23.83;;;11.98;;
82352;SDS011;71954;47.430;18.920;2024-02-16T07:59:01;22.13;;;11.38;;
82352;SDS011;71954;47.430;18.920;2024-02-16T08:01:28;23.00;;;12.45;;
82352;SDS011;71954;47.430;18.920;2024-02-16T08:03:55;25.02;;;11.82;;
82352;SDS011;71954;47.430;18.920;2024-02-16T08:06:25;23.10;;;11.77;;
82352;SDS011;71954;47.430;18.920;2024-02-16T08:08:54;21.98;;;11.60;;
82352;SDS011;71954;47.430;18.920;2024-02-16T08:11:22;22.63;;;10.75;;
82352;SDS011;71954;47.430;18.920;2024-02-16T08:13:49;22.60;;;11.68;;
82352;SDS011;71954;47.430;18.920;2024-02-16T08:16:15;22.42;;;10.90;;
82352;SDS011;71954;47.430;18.920;2024-02-16T08:18:45;20.33;;;11.38;;
82352;SDS011;71954;47.430;18.920;2024-02-16T08:21:12;18.48;;;10.25;;
82352;SDS011;71954;47.430;18.920;2024-02-16T08:23:39;20.27;;;11.05;;
82352;SDS011;71954;47.430;18.920;2024-02-16T08:26:05;22.05;;;11.43;;
82352;SDS011;71954;47.430;18.920;2024-02-16T08:28:32;17.45;;;8.43;;
82352;SDS011;71954;47.430;18.920;2024-02-16T08:30:59;20.25;;;9.30;;
82352;SDS011;71954;47.430;18.920;2024-02-16T08:33:25;17.95;;;9.85;;
82352;SDS011;71954;47.430;18.920;2024-02-16T08:35:52;22.52;;;11.65;;
82352;SDS011;71954;47.430;18.920;2024-02-16T08:38:21;19.33;;;9.40;;
82352;SDS011;71954;47.430;18.920;2024-02-16T08:40:47;20.27;;;9.23;;
82352;SDS011;71954;47.430;18.920;2024-02-16T08:43:14;18.52;;;9.18;;
82352;SDS011;71954;47.430;18.920;2024-02-16T08:45:41;16.55;;;9.13;;
82352;SDS011;71954;47.430;18.920;2024-02-16T08:48:08;18.65;;;8.68;;
82352;SDS011;71954;47.430;18.920;2024-02-16T08:50:34;16.45;;;7.43;;
82352;SDS011;71954;47.430;18.920;2024-02-16T08:53:01;15.35;;;7.70;;
82352;SDS011;71954;47.430;18.920;2024-02-16T08:55:28;17.02;;;8.43;;
82352;SDS011;71954;47.430;18.920;2024-02-16T08:57:54;17.75;;;8.88;;
82352;SDS011;71954;47.430;18.920;2024-02-16T09:00:21;14.75;;;7.20;;
82352;SDS011;71954;47.430;18.920;2024-02-16T09:02:50;16.08;;;8.15;;
82352;SDS011;71954;47.430;18.920;2024-02-16T09:05:18;15.75;;;7.60;;
82352;SDS011;71954;47.430;18.920;2024-02-16T09:07:46;17.33;;;8.15;;
82352;SDS011;71954;47.430;18.920;2024-02-16T09:10:15;15.45;;;9.13;;
82352;SDS011;71954;47.430;18.920;2024-02-16T09:12:42;16.02;;;8.32;;
82352;SDS011;71954;47.430;18.920;2024-02-16T09:15:09;16.60;;;7.78;;
82352;SDS011;71954;47.430;18.920;2024-02-16T09:17:36;14.40;;;6.90;;
82352;SDS011;71954;47.430;18.920;2024-02-16T09:20:02;12.15;;;5.97;;
82352;SDS011;71954;47.430;18.920;2024-02-16T09:22:31;13.30;;;7.15;;
82352;SDS011;71954;47.430;18.920;2024-02-16T09:25:00;12.68;;;6.72;;
82352;SDS011;71954;47.430;18.920;2024-02-16T09:27:28;13.75;;;7.50;;
82352;SDS011;71954;47.430;18.920;2024-02-16T09:29:55;14.57;;;7.30;;
82352;SDS011;71954;47.430;18.920;2024-02-16T09:32:22;17.60;;;6.88;;
82352;SDS011;71954;47.430;18.920;2024-02-16T09:34:49;12.15;;;6.78;;
82352;SDS011;71954;47.430;18.920;2024-02-16T09:37:18;12.48;;;7.22;;
82352;SDS011;71954;47.430;18.920;2024-02-16T09:39:45;10.38;;;5.88;;
82352;SDS011;71954;47.430;18.920;2024-02-16T09:42:11;12.30;;;6.50;;
82352;SDS011;71954;47.430;18.920;2024-02-16T09:44:41;10.43;;;5.57;;
82352;SDS011;71954;47.430;18.920;2024-02-16T09:47:09;13.65;;;6.43;;
82352;SDS011;71954;47.430;18.920;2024-02-16T09:49:39;17.35;;;6.80;;
82352;SDS011;71954;47.430;18.920;2024-02-16T09:52:08;11.18;;;6.25;;
82352;SDS011;71954;47.430;18.920;2024-02-16T09:54:38;12.25;;;6.28;;
82352;SDS011;71954;47.430;18.920;2024-02-16T09:57:06;11.90;;;6.93;;
82352;SDS011;71954;47.430;18.920;2024-02-16T09:59:32;15.90;;;7.93;;
82352;SDS011;71954;47.430;18.920;2024-02-16T10:02:02;15.60;;;8.23;;
82352;SDS011;71954;47.430;18.920;2024-02-16T10:04:30;15.80;;;7.88;;
82352;SDS011;71954;47.430;18.920;2024-02-16T10:07:02;13.93;;;7.32;;
82352;SDS011;71954;47.430;18.920;2024-02-16T10:09:36;13.63;;;7.70;;
82352;SDS011;71954;47.430;18.920;2024-02-16T10:12:05;14.93;;;8.07;;
82352;SDS011;71954;47.430;18.920;2024-02-16T10:14:33;13.85;;;7.22;;
82352;SDS011;71954;47.430;18.920;2024-02-16T10:17:00;10.48;;;5.57;;
82352;SDS011;71954;47.430;18.920;2024-02-16T10:19:32;15.55;;;7.05;;
82352;SDS011;71954;47.430;18.920;2024-02-16T10:22:08;11.57;;;6.25;;
82352;SDS011;71954;47.430;18.920;2024-02-16T10:24:41;12.65;;;5.88;;
82352;SDS011;71954;47.430;18.920;2024-02-16T10:27:18;10.57;;;5.40;;
82352;SDS011;71954;47.430;18.920;2024-02-16T10:29:47;9.63;;;4.90;;
82352;SDS011;71954;47.430;18.920;2024-02-16T10:32:16;10.10;;;5.38;;
82352;SDS011;71954;47.430;18.920;2024-02-16T10:34:43;11.48;;;5.35;;
82352;SDS011;71954;47.430;18.920;2024-02-16T10:37:13;14.23;;;6.53;;
82352;SDS011;71954;47.430;18.920;2024-02-16T10:39:40;12.23;;;5.38;;
82352;SDS011;71954;47.430;18.920;2024-02-16T10:42:08;8.60;;;4.43;;
82352;SDS011;71954;47.430;18.920;2024-02-16T10:44:37;11.82;;;5.53;;
82352;SDS011;71954;47.430;18.920;2024-02-16T10:47:04;10.45;;;5.22;;
82352;SDS011;71954;47.430;18.920;2024-02-16T10:49:31;9.75;;;4.80;;
82352;SDS011;71954;47.430;18.920;2024-02-16T10:54:30;11.45;;;5.70;;
82352;SDS011;71954;47.430;18.920;2024-02-16T10:57:00;12.70;;;5.53;;
82352;SDS011;71954;47.430;18.920;2024-02-16T10:59:26;11.48;;;5.78;;
82352;SDS011;71954;47.430;18.920;2024-02-16T11:02:05;13.57;;;5.30;;
82352;SDS011;71954;47.430;18.920;2024-02-16T11:04:36;12.82;;;6.00;;
82352;SDS011;71954;47.430;18.920;2024-02-16T11:07:11;9.75;;;5.30;;
82352;SDS011;71954;47.430;18.920;2024-02-16T11:09:39;10.25;;;4.97;;
82352;SDS011;71954;47.430;18.920;2024-02-16T11:12:07;12.10;;;4.63;;
82352;SDS011;71954;47.430;18.920;2024-02-16T11:14:42;11.68;;;5.78;;
82352;SDS011;71954;47.430;18.920;2024-02-16T11:17:14;12.13;;;5.00;;
82352;SDS011;71954;47.430;18.920;2024-02-16T11:19:42;15.18;;;5.18;;
82352;SDS011;71954;47.430;18.920;2024-02-16T11:22:11;12.60;;;5.80;;
82352;SDS011;71954;47.430;18.920;2024-02-16T11:24:45;12.45;;;5.90;;
82352;SDS011;71954;47.430;18.920;2024-02-16T11:27:17;9.82;;;5.60;;
82352;SDS011;71954;47.430;18.920;2024-02-16T11:29:48;11.45;;;6.10;;
82352;SDS011;71954;47.430;18.920;2024-02-16T11:32:17;10.93;;;6.00;;
82352;SDS011;71954;47.430;18.920;2024-02-16T11:34:45;12.52;;;5.80;;
82352;SDS011;71954;47.430;18.920;2024-02-16T11:37:12;14.20;;;5.60;;
82352;SDS011;71954;47.430;18.920;2024-02-16T11:39:40;10.55;;;5.47;;
82352;SDS011;71954;47.430;18.920;2024-02-16T11:42:11;11.40;;;5.68;;
82352;SDS011;71954;47.430;18.920;2024-02-16T11:44:40;11.05;;;4.90;;
82352;SDS011;71954;47.430;18.920;2024-02-16T11:47:21;12.65;;;5.90;;
82352;SDS011;71954;47.430;18.920;2024-02-16T11:52:32;10.93;;;6.38;;
82352;SDS011;71954;47.430;18.920;2024-02-16T11:54:59;11.20;;;6.22;;
82352;SDS011;71954;47.430;18.920;2024-02-16T11:57:28;12.75;;;6.53;;
82352;SDS011;71954;47.430;18.920;2024-02-16T11:59:55;13.40;;;6.45;;
82352;SDS011;71954;47.430;18.920;2024-02-16T12:02:23;11.95;;;7.22;;
82352;SDS011;71954;47.430;18.920;2024-02-16T12:04:58;11.13;;;5.78;;
82352;SDS011;71954;47.430;18.920;2024-02-16T12:07:29;15.52;;;5.57;;
82352;SDS011;71954;47.430;18.920;2024-02-16T12:12:27;10.50;;;5.75;;
82352;SDS011;71954;47.430;18.920;2024-02-16T12:14:54;11.25;;;5.88;;
82352;SDS011;71954;47.430;18.920;2024-02-16T12:17:22;12.05;;;6.50;;
82352;SDS011;71954;47.430;18.920;2024-02-16T12:19:50;10.45;;;6.38;;
82352;SDS011;71954;47.430;18.920;2024-02-16T12:22:19;10.50;;;5.80;;
82352;SDS011;71954;47.430;18.920;2024-02-16T12:24:47;11.15;;;5.60;;
82352;SDS011;71954;47.430;18.920;2024-02-16T12:27:15;10.95;;;5.07;;
82352;SDS011;71954;47.430;18.920;2024-02-16T12:29:41;11.80;;;6.03;;
82352;SDS011;71954;47.430;18.920;2024-02-16T12:32:08;12.85;;;6.22;;
82352;SDS011;71954;47.430;18.920;2024-02-16T12:34:38;11.70;;;5.97;;
82352;SDS011;71954;47.430;18.920;2024-02-16T12:37:05;11.57;;;5.57;;
82352;SDS011;71954;47.430;18.920;2024-02-16T12:39:37;10.65;;;6.18;;
82352;SDS011;71954;47.430;18.920;2024-02-16T12:44:32;12.32;;;5.47;;
82352;SDS011;71954;47.430;18.920;2024-02-16T12:46:59;12.77;;;5.90;;
82352;SDS011;71954;47.430;18.920;2024-02-16T12:49:25;11.18;;;5.78;;
82352;SDS011;71954;47.430;18.920;2024-02-16T12:51:52;10.00;;;5.47;;
82352;SDS011;71954;47.430;18.920;2024-02-16T12:54:20;12.10;;;6.20;;
82352;SDS011;71954;47.430;18.920;2024-02-16T12:56:48;10.02;;;5.63;;
82352;SDS011;71954;47.430;18.920;2024-02-16T12:59:16;9.88;;;5.20;;
82352;SDS011;71954;47.430;18.920;2024-02-16T13:04:10;11.55;;;6.63;;
82352;SDS011;71954;47.430;18.920;2024-02-16T13:06:37;10.90;;;6.38;;
82352;SDS011;71954;47.430;18.920;2024-02-16T13:09:04;13.48;;;6.30;;
82352;SDS011;71954;47.430;18.920;2024-02-16T13:11:32;11.95;;;6.57;;
82352;SDS011;71954;47.430;18.920;2024-02-16T13:14:00;10.48;;;5.25;;
82352;SDS011;71954;47.430;18.920;2024-02-16T13:16:27;15.60;;;5.07;;
82352;SDS011;71954;47.430;18.920;2024-02-16T13:18:55;10.20;;;5.05;;
82352;SDS011;71954;47.430;18.920;2024-02-16T13:21:22;10.65;;;6.45;;
82352;SDS011;71954;47.430;18.920;2024-02-16T13:23:49;11.13;;;5.30;;
82352;SDS011;71954;47.430;18.920;2024-02-16T13:26:16;13.57;;;5.75;;
82352;SDS011;71954;47.430;18.920;2024-02-16T13:28:43;9.65;;;5.32;;
82352;SDS011;71954;47.430;18.920;2024-02-16T13:31:10;13.43;;;6.03;;
82352;SDS011;71954;47.430;18.920;2024-02-16T13:33:37;10.73;;;4.97;;
82352;SDS011;71954;47.430;18.920;2024-02-16T13:36:04;13.48;;;5.95;;
82352;SDS011;71954;47.430;18.920;2024-02-16T13:40:58;10.77;;;5.25;;
82352;SDS011;71954;47.430;18.920;2024-02-16T13:43:25;12.50;;;6.53;;
82352;SDS011;71954;47.430;18.920;2024-02-16T13:45:53;11.98;;;5.65;;
82352;SDS011;71954;47.430;18.920;2024-02-16T13:48:21;10.63;;;5.75;;
82352;SDS011;71954;47.430;18.920;2024-02-16T13:50:49;10.45;;;6.00;;
82352;SDS011;71954;47.430;18.920;2024-02-16T13:53:16;13.10;;;5.63;;
82352;SDS011;71954;47.430;18.920;2024-02-16T13:55:47;12.25;;;6.78;;
82352;SDS011;71954;47.430;18.920;2024-02-16T13:58:15;10.13;;;5.40;;
82352;SDS011;71954;47.430;18.920;2024-02-16T14:03:09;10.48;;;4.75;;
82352;SDS011;71954;47.430;18.920;2024-02-16T14:05:37;9.05;;;5.57;;
82352;SDS011;71954;47.430;18.920;2024-02-16T14:08:05;10.82;;;6.30;;
82352;SDS011;71954;47.430;18.920;2024-02-16T14:10:34;11.88;;;6.25;;
82352;SDS011;71954;47.430;18.920;2024-02-16T14:13:02;9.40;;;5.05;;
82352;SDS011;71954;47.430;18.920;2024-02-16T14:15:29;9.35;;;4.85;;
82352;SDS011;71954;47.430;18.920;2024-02-16T14:17:58;10.32;;;5.60;;
82352;SDS011;71954;47.430;18.920;2024-02-16T14:20:36;10.57;;;5.60;;
82352;SDS011;71954;47.430;18.920;2024-02-16T14:23:03;11.73;;;5.70;;
82352;SDS011;71954;47.430;18.920;2024-02-16T14:25:29;9.82;;;5.82;;
82352;SDS011;71954;47.430;18.920;2024-02-16T14:27:56;11.68;;;6.18;;
82352;SDS011;71954;47.430;18.920;2024-02-16T14:30:24;12.02;;;5.55;;
82352;SDS011;71954;47.430;18.920;2024-02-16T14:32:51;10.10;;;5.70;;
82352;SDS011;71954;47.430;18.920;2024-02-16T14:35:20;10.68;;;5.03;;
82352;SDS011;71954;47.430;18.920;2024-02-16T14:37:48;11.32;;;6.00;;
82352;SDS011;71954;47.430;18.920;2024-02-16T14:40:16;9.00;;;5.10;;
82352;SDS011;71954;47.430;18.920;2024-02-16T14:42:42;10.32;;;5.15;;
82352;SDS011;71954;47.430;18.920;2024-02-16T14:45:10;10.30;;;5.68;;
82352;SDS011;71954;47.430;18.920;2024-02-16T14:47:50;10.68;;;5.65;;
82352;SDS011;71954;47.430;18.920;2024-02-16T14:50:17;9.75;;;5.13;;
82352;SDS011;71954;47.430;18.920;2024-02-16T14:52:44;14.13;;;7.55;;
82352;SDS011;71954;47.430;18.920;2024-02-16T14:55:12;11.63;;;6.35;;
82352;SDS011;71954;47.430;18.920;2024-02-16T14:57:40;11.75;;;5.55;;
82352;SDS011;71954;47.430;18.920;2024-02-16T15:00:08;9.52;;;5.18;;
82352;SDS011;71954;47.430;18.920;2024-02-16T15:02:38;9.25;;;5.40;;